Stallings, North Carolina
Current Conditions -  °F | °C
As of 10:53 PM on Wednesday 22 Oct 2014 (Local Time) from KEQY Reporting Station
Clear Clear  
Wind Chill: 52°   Ceiling: Unl
Heat Index: 52°   Visibility: 10mi
Dew Point: 38°   Wind: 10mph
Humidity: 59%   Direction: 350°N
Pressure: 30.09"   Gusts: NA
Location:  35.082°N, 80.6782°W
Report Text: KEQY 230253Z AUTO 35009KT 10SM CLR 11/03 A3009 RMK AO2 SLP199 T01110033 51010
Loading
Personal Weather Stations






























Interactive Weather Map
Tropical Storm Tracking
New forecast layout! Learn more

10-Day Weather Forecast

Advertisements
Track Severe Weather on mobile